Time,TemperatureF,DewpointF,PressureIn,WindDirection,WindDirectionDegrees,WindSpeedMPH,WindSpeedGustMPH,Humidity,HourlyPrecipIn,Conditions,Clouds,dailyrainin,SoftwareType,DateUTC
2013-05-05 00:02:00,46.0,25.0,30.20,NNE,28,2.0,7.0,44,0.00,,,0.00,,2013-05-05 05:02:00,
2013-05-05 00:12:00,46.0,25.0,30.20,NNE,28,2.0,7.0,44,0.00,,,0.00,,2013-05-05 05:12:00,
2013-05-05 00:21:00,45.0,25.0,30.20,NNE,15,4.0,6.0,46,0.00,,,0.00,,2013-05-05 05:21:00,
2013-05-05 00:31:00,45.0,27.0,30.21,North,5,2.0,5.0,49,0.00,,,0.00,,2013-05-05 05:31:00,
2013-05-05 00:42:00,45.0,27.0,30.21,North,5,2.0,5.0,49,0.00,,,0.00,,2013-05-05 05:42:00,
2013-05-05 00:52:00,44.0,27.0,30.21,NNW,338,0.0,4.0,51,0.00,,,0.00,,2013-05-05 05:52:00,
2013-05-05 01:01:00,42.0,27.0,30.21,WNW,294,2.0,4.0,56,0.00,,,0.00,,2013-05-05 06:01:00,
2013-05-05 01:12:00,42.0,27.0,30.21,WNW,294,2.0,4.0,56,0.00,,,0.00,,2013-05-05 06:12:00,
2013-05-05 01:21:00,40.0,26.0,30.21,North,5,1.0,5.0,58,0.00,,,0.00,,2013-05-05 06:21:00,
2013-05-05 01:32:00,39.0,26.0,30.20,North,350,2.0,6.0,60,0.00,,,0.00,,2013-05-05 06:32:00,
2013-05-05 01:42:00,39.0,26.0,30.20,North,350,2.0,6.0,60,0.00,,,0.00,,2013-05-05 06:42:00,
2013-05-05 01:52:00,38.0,27.0,30.20,WNW,296,2.0,6.0,65,0.00,,,0.00,,2013-05-05 06:52:00,
2013-05-05 02:01:00,37.0,27.0,30.20,WNW,298,2.0,4.0,68,0.00,,,0.00,,2013-05-05 07:01:00,
2013-05-05 02:11:00,37.0,27.0,30.20,WNW,298,2.0,4.0,68,0.00,,,0.00,,2013-05-05 07:11:00,
2013-05-05 02:21:00,36.0,27.0,30.20,WNW,298,2.0,6.0,69,0.00,,,0.00,,2013-05-05 07:21:00,
2013-05-05 02:32:00,35.0,26.0,30.20,WNW,291,5.0,7.0,69,0.00,,,0.00,,2013-05-05 07:32:00,
2013-05-05 02:42:00,35.0,26.0,30.20,WNW,291,5.0,7.0,69,0.00,,,0.00,,2013-05-05 07:42:00,
2013-05-05 02:52:00,35.0,26.0,30.20,WNW,291,5.0,7.0,69,0.00,,,0.00,,2013-05-05 07:52:00,
2013-05-05 03:02:00,35.0,26.0,30.20,NW,306,2.0,7.0,70,0.00,,,0.00,,2013-05-05 08:02:00,
2013-05-05 03:11:00,35.0,26.0,30.20,NW,306,2.0,7.0,70,0.00,,,0.00,,2013-05-05 08:11:00,
2013-05-05 03:21:00,35.0,26.0,30.20,WNW,292,2.0,6.0,70,0.00,,,0.00,,2013-05-05 08:21:00,
2013-05-05 03:31:00,34.0,26.0,30.20,NNE,17,0.0,3.0,71,0.00,,,0.00,,2013-05-05 08:31:00,
2013-05-05 03:42:00,34.0,26.0,30.20,NNE,17,0.0,3.0,71,0.00,,,0.00,,2013-05-05 08:42:00,
2013-05-05 03:53:00,34.0,26.0,30.19,WNW,298,1.0,4.0,72,0.00,,,0.00,,2013-05-05 08:53:00,
2013-05-05 04:01:00,33.0,26.0,30.20,North,355,0.0,3.0,75,0.00,,,0.00,,2013-05-05 09:01:00,
2013-05-05 04:11:00,33.0,26.0,30.20,North,355,0.0,3.0,75,0.00,,,0.00,,2013-05-05 09:11:00,
2013-05-05 04:21:00,32.0,25.0,30.20,WNW,292,2.0,4.0,76,0.00,,,0.00,,2013-05-05 09:21:00,
2013-05-05 04:33:00,31.0,25.0,30.20,NW,315,1.0,5.0,78,0.00,,,0.00,,2013-05-05 09:33:00,
2013-05-05 04:42:00,31.0,25.0,30.20,NW,315,1.0,5.0,78,0.00,,,0.00,,2013-05-05 09:42:00,
2013-05-05 04:52:00,31.0,25.0,30.20,WNW,298,0.0,1.0,79,0.00,,,0.00,,2013-05-05 09:52:00,
2013-05-05 05:03:00,31.0,25.0,30.20,West,273,0.0,6.0,79,0.00,,,0.00,,2013-05-05 10:03:00,
2013-05-05 05:12:00,31.0,25.0,30.20,West,273,0.0,6.0,79,0.00,,,0.00,,2013-05-05 10:12:00,
2013-05-05 05:22:00,30.0,25.0,30.20,West,277,0.0,3.0,80,0.00,,,0.00,,2013-05-05 10:22:00,
2013-05-05 05:32:00,30.0,25.0,30.20,WNW,290,1.0,6.0,81,0.00,,,0.00,,2013-05-05 10:32:00,
2013-05-05 05:42:00,30.0,25.0,30.20,WNW,290,1.0,6.0,81,0.00,,,0.00,,2013-05-05 10:42:00,
2013-05-05 05:52:00,29.0,24.0,30.21,WNW,292,1.0,3.0,81,0.00,,,0.00,,2013-05-05 10:52:00,
2013-05-05 06:01:00,29.0,24.0,30.21,WNW,298,2.0,5.0,81,0.00,,,0.00,,2013-05-05 11:01:00,
2013-05-05 06:12:00,29.0,24.0,30.21,WNW,298,2.0,5.0,81,0.00,,,0.00,,2013-05-05 11:12:00,
2013-05-05 06:22:00,29.0,25.0,30.20,WNW,294,0.0,4.0,83,0.00,,,0.00,,2013-05-05 11:22:00,
2013-05-05 06:32:00,28.0,24.0,30.20,WNW,294,0.0,3.0,83,0.00,,,0.00,,2013-05-05 11:32:00,
2013-05-05 06:42:00,28.0,24.0,30.20,WNW,294,0.0,3.0,83,0.00,,,0.00,,2013-05-05 11:42:00,
2013-05-05 06:52:00,28.0,24.0,30.21,WNW,294,1.0,4.0,83,0.00,,,0.00,,2013-05-05 11:52:00,
2013-05-05 07:02:00,28.0,23.0,30.21,WNW,294,0.0,2.0,82,0.00,,,0.00,,2013-05-05 12:02:00,
2013-05-05 07:11:00,28.0,23.0,30.21,WNW,294,0.0,2.0,82,0.00,,,0.00,,2013-05-05 12:11:00,
2013-05-05 07:21:00,28.0,24.0,30.21,WNW,294,1.0,4.0,83,0.00,,,0.00,,2013-05-05 12:21:00,
2013-05-05 07:32:00,28.0,24.0,30.20,WNW,294,0.0,3.0,84,0.00,,,0.00,,2013-05-05 12:32:00,
2013-05-05 07:42:00,28.0,24.0,30.20,WNW,294,0.0,3.0,84,0.00,,,0.00,,2013-05-05 12:42:00,
2013-05-05 07:52:00,28.0,24.0,30.21,WNW,294,1.0,4.0,83,0.00,,,0.00,,2013-05-05 12:52:00,
2013-05-05 08:01:00,29.0,25.0,30.21,WNW,293,0.0,4.0,84,0.00,,,0.00,,2013-05-05 13:01:00,
2013-05-05 08:11:00,29.0,25.0,30.21,WNW,293,0.0,4.0,84,0.00,,,0.00,,2013-05-05 13:11:00,
2013-05-05 08:21:00,30.0,26.0,30.21,WNW,293,1.0,3.0,85,0.00,,,0.00,,2013-05-05 13:21:00,
2013-05-05 08:32:00,33.0,28.0,30.21,WNW,288,1.0,3.0,82,0.00,,,0.00,,2013-05-05 13:32:00,
2013-05-05 08:42:00,33.0,28.0,30.21,WNW,288,1.0,3.0,82,0.00,,,0.00,,2013-05-05 13:42:00,
2013-05-05 08:52:00,36.0,29.0,30.22,WNW,298,3.0,5.0,76,0.00,,,0.00,,2013-05-05 13:52:00,
2013-05-05 09:02:00,38.0,30.0,30.22,North,5,2.0,5.0,72,0.00,,,0.00,,2013-05-05 14:02:00,
2013-05-05 09:11:00,38.0,30.0,30.22,North,5,2.0,5.0,72,0.00,,,0.00,,2013-05-05 14:11:00,
2013-05-05 09:21:00,41.0,31.0,30.21,NE,40,2.0,8.0,67,0.00,,,0.00,,2013-05-05 14:21:00,
2013-05-05 09:32:00,44.0,31.0,30.21,NNE,19,4.0,9.0,59,0.00,,,0.00,,2013-05-05 14:32:00,
2013-05-05 09:42:00,44.0,31.0,30.21,NNE,19,4.0,9.0,59,0.00,,,0.00,,2013-05-05 14:42:00,
2013-05-05 09:52:00,45.0,30.0,30.22,NW,321,5.0,10.0,56,0.00,,,0.00,,2013-05-05 14:52:00,
2013-05-05 10:02:00,46.0,30.0,30.22,NNE,22,4.0,11.0,54,0.00,,,0.00,,2013-05-05 15:02:00,
2013-05-05 10:11:00,46.0,30.0,30.22,NNE,22,4.0,11.0,54,0.00,,,0.00,,2013-05-05 15:11:00,
2013-05-05 10:21:00,46.0,29.0,30.22,North,9,6.0,11.0,51,0.00,,,0.00,,2013-05-05 15:21:00,
2013-05-05 10:33:00,47.0,27.0,30.22,NNW,339,5.0,11.0,46,0.00,,,0.00,,2013-05-05 15:33:00,
2013-05-05 10:43:00,47.0,27.0,30.22,NNW,339,5.0,11.0,46,0.00,,,0.00,,2013-05-05 15:43:00,
2013-05-05 10:53:00,49.0,28.0,30.21,NNW,342,6.0,11.0,44,0.00,,,0.00,,2013-05-05 15:53:00,
2013-05-05 11:03:00,50.0,28.0,30.21,NNE,25,4.0,11.0,43,0.00,,,0.00,,2013-05-05 16:03:00,
2013-05-05 11:12:00,50.0,28.0,30.21,NNE,25,4.0,11.0,43,0.00,,,0.00,,2013-05-05 16:12:00,
2013-05-05 11:23:00,50.0,27.0,30.21,North,10,7.0,15.0,40,0.00,,,0.00,,2013-05-05 16:23:00,
2013-05-05 11:32:00,51.0,27.0,30.21,NNW,331,8.0,13.0,39,0.00,,,0.00,,2013-05-05 16:32:00,
2013-05-05 11:42:00,51.0,27.0,30.21,NNW,331,8.0,13.0,39,0.00,,,0.00,,2013-05-05 16:42:00,
2013-05-05 11:52:00,52.0,26.0,30.21,North,355,7.0,15.0,36,0.00,,,0.00,,2013-05-05 16:52:00,
2013-05-05 12:02:00,53.0,26.0,30.21,North,5,5.0,13.0,35,0.00,,,0.00,,2013-05-05 17:02:00,
2013-05-05 12:12:00,53.0,26.0,30.21,North,5,5.0,13.0,35,0.00,,,0.00,,2013-05-05 17:12:00,
2013-05-05 12:23:00,54.0,27.0,30.21,North,355,5.0,16.0,35,0.00,,,0.00,,2013-05-05 17:23:00,
2013-05-05 12:32:00,54.0,23.0,30.20,North,355,6.0,12.0,30,0.00,,,0.00,,2013-05-05 17:32:00,
2013-05-05 12:42:00,54.0,23.0,30.20,North,355,6.0,12.0,30,0.00,,,0.00,,2013-05-05 17:42:00,
2013-05-05 12:52:00,55.0,24.0,30.19,NNE,25,7.0,12.0,30,0.00,,,0.00,,2013-05-05 17:52:00,
2013-05-05 13:01:00,55.0,24.0,30.19,NNE,25,7.0,12.0,30,0.00,,,0.00,,2013-05-05 18:01:00,
2013-05-05 13:12:00,55.0,24.0,30.19,NNE,25,7.0,12.0,30,0.00,,,0.00,,2013-05-05 18:12:00,
2013-05-05 13:21:00,56.0,23.0,30.18,NNE,20,7.0,13.0,28,0.00,,,0.00,,2013-05-05 18:21:00,
2013-05-05 13:32:00,57.0,22.0,30.17,NNE,32,5.0,12.0,26,0.00,,,0.00,,2013-05-05 18:32:00,
2013-05-05 13:42:00,57.0,22.0,30.17,NNE,32,5.0,12.0,26,0.00,,,0.00,,2013-05-05 18:42:00,
2013-05-05 13:52:00,57.0,22.0,30.16,NNE,18,5.0,9.0,25,0.00,,,0.00,,2013-05-05 18:52:00,
2013-05-05 14:01:00,58.0,23.0,30.16,NE,44,5.0,10.0,26,0.00,,,0.00,,2013-05-05 19:01:00,
2013-05-05 14:11:00,58.0,23.0,30.16,NE,44,5.0,10.0,26,0.00,,,0.00,,2013-05-05 19:11:00,
2013-05-05 14:21:00,59.0,23.0,30.15,North,10,4.0,9.0,25,0.00,,,0.00,,2013-05-05 19:21:00,
2013-05-05 14:32:00,59.0,22.0,30.15,NNE,25,3.0,10.0,24,0.00,,,0.00,,2013-05-05 19:32:00,
2013-05-05 14:42:00,59.0,22.0,30.15,NNE,25,3.0,10.0,24,0.00,,,0.00,,2013-05-05 19:42:00,
2013-05-05 14:52:00,60.0,22.0,30.14,NE,35,4.0,11.0,23,0.00,,,0.00,,2013-05-05 19:52:00,
2013-05-05 15:01:00,60.0,21.0,30.14,NNE,27,4.0,11.0,22,0.00,,,0.00,,2013-05-05 20:01:00,
2013-05-05 15:11:00,60.0,21.0,30.14,NNE,27,4.0,11.0,22,0.00,,,0.00,,2013-05-05 20:11:00,
2013-05-05 15:21:00,61.0,22.0,30.14,NW,309,4.0,10.0,22,0.00,,,0.00,,2013-05-05 20:21:00,
2013-05-05 15:31:00,61.0,21.0,30.13,ENE,59,4.0,10.0,21,0.00,,,0.00,,2013-05-05 20:31:00,
2013-05-05 15:41:00,61.0,21.0,30.13,ENE,59,4.0,10.0,21,0.00,,,0.00,,2013-05-05 20:41:00,
2013-05-05 15:52:00,62.0,23.0,30.12,North,5,3.0,7.0,22,0.00,,,0.00,,2013-05-05 20:52:00,
2013-05-05 16:02:00,62.0,22.0,30.12,NNW,329,5.0,10.0,21,0.00,,,0.00,,2013-05-05 21:02:00,
2013-05-05 16:11:00,62.0,22.0,30.12,NNW,329,5.0,10.0,21,0.00,,,0.00,,2013-05-05 21:11:00,
2013-05-05 16:21:00,63.0,24.0,30.11,ENE,59,1.0,5.0,22,0.00,,,0.00,,2013-05-05 21:21:00,
2013-05-05 16:33:00,63.0,22.0,30.11,North,5,3.0,10.0,21,0.00,,,0.00,,2013-05-05 21:33:00,
2013-05-05 16:42:00,63.0,22.0,30.11,North,5,3.0,10.0,21,0.00,,,0.00,,2013-05-05 21:42:00,
2013-05-05 16:53:00,63.0,28.0,30.10,SE,131,1.0,11.0,26,0.00,,,0.00,,2013-05-05 21:53:00,
2013-05-05 17:02:00,64.0,24.0,30.09,NNE,21,3.0,12.0,22,0.00,,,0.00,,2013-05-05 22:02:00,
2013-05-05 17:12:00,64.0,24.0,30.09,NNE,21,3.0,12.0,22,0.00,,,0.00,,2013-05-05 22:12:00,
2013-05-05 17:22:00,64.0,22.0,30.09,NE,34,4.0,11.0,20,0.00,,,0.00,,2013-05-05 22:22:00,
2013-05-05 17:33:00,64.0,22.0,30.09,NNE,28,3.0,8.0,20,0.00,,,0.00,,2013-05-05 22:33:00,
2013-05-05 17:42:00,64.0,22.0,30.09,NNE,28,3.0,8.0,20,0.00,,,0.00,,2013-05-05 22:42:00,
2013-05-05 17:52:00,64.0,20.0,30.08,NE,36,4.0,7.0,18,0.00,,,0.00,,2013-05-05 22:52:00,
2013-05-05 18:02:00,64.0,24.0,30.08,NNW,345,1.0,9.0,22,0.00,,,0.00,,2013-05-05 23:02:00,
2013-05-05 18:11:00,64.0,24.0,30.08,NNW,345,1.0,9.0,22,0.00,,,0.00,,2013-05-05 23:11:00,
2013-05-05 18:21:00,65.0,22.0,30.08,East,86,1.0,7.0,19,0.00,,,0.00,,2013-05-05 23:21:00,
2013-05-05 18:32:00,64.0,22.0,30.08,ENE,59,2.0,8.0,20,0.00,,,0.00,,2013-05-05 23:32:00,
2013-05-05 18:42:00,64.0,22.0,30.08,ENE,59,2.0,8.0,20,0.00,,,0.00,,2013-05-05 23:42:00,
2013-05-05 18:52:00,64.0,22.0,30.07,NNE,19,2.0,6.0,20,0.00,,,0.00,,2013-05-05 23:52:00,
2013-05-05 19:01:00,64.0,21.0,30.07,NNE,30,4.0,8.0,19,0.00,,,0.00,,2013-05-06 00:01:00,
2013-05-05 19:11:00,64.0,21.0,30.07,NNE,30,4.0,8.0,19,0.00,,,0.00,,2013-05-06 00:11:00,
2013-05-05 19:21:00,64.0,22.0,30.07,NE,36,0.0,6.0,20,0.00,,,0.00,,2013-05-06 00:21:00,
2013-05-05 19:32:00,64.0,22.0,30.07,NE,51,2.0,5.0,20,0.00,,,0.00,,2013-05-06 00:32:00,
2013-05-05 19:41:00,64.0,22.0,30.07,NE,51,2.0,5.0,20,0.00,,,0.00,,2013-05-06 00:41:00,
2013-05-05 19:51:00,63.0,22.0,30.07,NE,34,4.0,8.0,21,0.00,,,0.00,,2013-05-06 00:51:00,
2013-05-05 20:01:00,62.0,22.0,30.07,ENE,63,2.0,6.0,21,0.00,,,0.00,,2013-05-06 01:01:00,
2013-05-05 20:11:00,62.0,22.0,30.07,ENE,63,2.0,6.0,21,0.00,,,0.00,,2013-05-06 01:11:00,
2013-05-05 20:21:00,62.0,22.0,30.07,ENE,61,1.0,4.0,21,0.00,,,0.00,,2013-05-06 01:21:00,
2013-05-05 20:31:00,61.0,23.0,30.07,ENE,76,1.0,5.0,23,0.00,,,0.00,,2013-05-06 01:31:00,
2013-05-05 20:41:00,61.0,23.0,30.07,ENE,76,1.0,5.0,23,0.00,,,0.00,,2013-05-06 01:41:00,
2013-05-05 20:52:00,61.0,23.0,30.07,ENE,76,0.0,3.0,23,0.00,,,0.00,,2013-05-06 01:52:00,
2013-05-05 21:02:00,60.0,24.0,30.08,ESE,119,0.0,2.0,25,0.00,,,0.00,,2013-05-06 02:02:00,
2013-05-05 21:12:00,60.0,24.0,30.08,ESE,119,0.0,2.0,25,0.00,,,0.00,,2013-05-06 02:12:00,
2013-05-05 21:21:00,59.0,23.0,30.08,ESE,119,0.0,1.0,25,0.00,,,0.00,,2013-05-06 02:21:00,
2013-05-05 21:32:00,58.0,23.0,30.09,ESE,119,0.0,1.0,26,0.00,,,0.00,,2013-05-06 02:32:00,
2013-05-05 21:42:00,58.0,23.0,30.09,ESE,119,0.0,1.0,26,0.00,,,0.00,,2013-05-06 02:42:00,
2013-05-05 21:51:00,57.0,23.0,30.09,ESE,119,0.0,1.0,27,0.00,,,0.00,,2013-05-06 02:51:00,
2013-05-05 22:02:00,56.0,23.0,30.09,ESE,119,0.0,1.0,28,0.00,,,0.00,,2013-05-06 03:02:00,
2013-05-05 22:11:00,56.0,23.0,30.09,ESE,119,0.0,1.0,28,0.00,,,0.00,,2013-05-06 03:11:00,
2013-05-05 22:22:00,55.0,24.0,30.10,ESE,119,0.0,1.0,30,0.00,,,0.00,,2013-05-06 03:22:00,
2013-05-05 22:33:00,55.0,26.0,30.10,SE,132,0.0,2.0,32,0.00,,,0.00,,2013-05-06 03:33:00,
2013-05-05 22:42:00,55.0,26.0,30.10,SE,132,0.0,2.0,32,0.00,,,0.00,,2013-05-06 03:42:00,
2013-05-05 22:52:00,53.0,25.0,30.10,SE,132,0.0,0.0,34,0.00,,,0.00,,2013-05-06 03:52:00,
2013-05-05 23:02:00,52.0,28.0,30.10,SE,132,0.0,0.0,40,0.00,,,0.00,,2013-05-06 04:02:00,
2013-05-05 23:12:00,52.0,28.0,30.10,SE,132,0.0,0.0,40,0.00,,,0.00,,2013-05-06 04:12:00,
2013-05-05 23:23:00,51.0,29.0,30.10,SE,132,0.0,0.0,43,0.00,,,0.00,,2013-05-06 04:23:00,
2013-05-05 23:32:00,50.0,29.0,30.10,SE,132,0.0,0.0,45,0.00,,,0.00,,2013-05-06 04:32:00,
2013-05-05 23:42:00,50.0,29.0,30.10,SE,132,0.0,0.0,45,0.00,,,0.00,,2013-05-06 04:42:00,
2013-05-05 23:52:00,49.0,30.0,30.10,SE,132,0.0,1.0,48,0.00,,,0.00,,2013-05-06 04:52:00,